CST,Max TemperatureF,Mean TemperatureF,Min TemperatureF,Max Dew PointF,MeanDew PointF,Min DewpointF,Max Humidity, Mean Humidity, Min Humidity, Max Sea Level PressureIn, Mean Sea Level PressureIn, Min Sea Level PressureIn, Max VisibilityMiles, Mean VisibilityMiles, Min VisibilityMiles, Max Wind SpeedMPH, Mean Wind SpeedMPH, Max Gust SpeedMPH,PrecipitationIn, CloudCover, Events, WindDirDegrees
2013-2-1,28,15,2,19,7,-4,77,65,51,30.42,30.22,30.07,10,10,10,22,7,26,0.00,3,,187
2013-2-2,45,33,21,36,28,18,92,78,65,30.18,30.13,30.06,10,10,7,17,5,22,0.00,2,,277
2013-2-3,45,35,25,28,24,16,87,63,38,30.25,30.07,29.81,10,10,10,20,10,20,0.00,0,,226
2013-2-4,35,30,26,29,25,23,90,83,72,30.02,29.93,29.78,10,9,5,20,6,22,0.00,5,,351
2013-2-5,52,38,24,31,26,22,91,69,33,30.07,29.97,29.87,10,9,5,17,5,17,0.00,2,,293
2013-2-6,61,48,35,42,32,26,91,64,34,30.05,29.92,29.81,10,10,5,18,8,24,0.03,3,,169
2013-2-7,43,36,30,40,32,26,94,81,63,30.25,30.05,29.88,10,8,2,22,10,26,0.18,4,Rain,355
2013-2-8,42,34,27,29,27,24,90,77,55,30.33,30.23,30.11,10,8,4,13,6,17,0.00,4,,122
2013-2-9,54,42,31,37,32,28,92,75,48,30.13,29.89,29.64,10,8,4,24,14,32,0.00,4,Rain-Thunderstorm,156
2013-2-10,45,40,34,43,32,22,93,77,55,29.88,29.51,29.31,10,8,2,33,19,43,0.05,8,Rain-Snow,234
2013-2-11,41,34,26,24,20,18,79,62,38,30.17,30.08,29.89,10,10,10,28,14,37,0.00,1,,299
2013-2-12,50,35,20,24,18,13,89,58,23,30.16,30.03,29.92,10,10,10,15,4,22,0.00,0,,257
2013-2-13,55,40,24,27,22,17,81,57,23,29.93,29.84,29.76,10,10,10,15,6,21,0.00,0,,267
2013-2-14,46,36,24,31,24,16,86,60,32,30.29,30.04,29.84,10,10,10,31,13,40,0.00,3,Rain,313
2013-2-15,37,26,14,26,16,10,86,69,35,30.38,30.33,30.26,10,10,0,22,10,32,0.00,3,Snow,318
2013-2-16,40,26,12,22,15,9,86,64,35,30.34,30.14,29.98,10,10,10,17,6,20,0.00,4,,179
2013-2-17,62,44,25,29,23,18,73,49,22,29.98,29.78,29.54,10,10,10,18,7,24,0.00,0,,152
2013-2-18,46,34,23,32,24,14,90,63,44,30.09,29.79,29.51,10,10,1,31,14,39,0.00,3,Snow,340
2013-2-19,31,23,15,16,4,-8,77,50,18,30.34,30.26,30.09,10,10,10,23,11,29,0.00,0,,347
2013-2-20,25,18,11,14,4,1,70,54,40,30.34,30.25,30.15,10,10,7,15,10,20,0.00,5,Snow,84
2013-2-21,24,22,20,19,14,5,86,70,44,30.18,29.93,29.81,10,6,0,18,13,26,0.00,8,Snow,62
2013-2-22,23,16,8,19,11,4,86,75,60,30.04,29.97,29.83,10,9,2,18,10,,0.00,2,Snow,298
2013-2-23,36,20,5,25,14,0,83,73,58,30.02,29.92,29.84,10,10,7,14,4,17,0.03,0,,190
2013-2-24,42,32,23,28,24,19,82,68,46,30.03,29.95,29.89,10,10,7,9,6,,0.00,5,,111
2013-2-25,35,32,29,29,27,26,87,81,70,30.04,29.97,29.85,7,5,2,18,11,25,0.00,6,Snow,23
2013-2-26,33,30,26,28,26,24,89,84,74,29.92,29.83,29.78,5,3,1,21,15,25,0.00,8,Snow,353
2013-2-27,41,34,26,27,24,21,86,72,43,30.11,30.01,29.90,10,8,4,31,16,38,0.01,4,,329
2013-2-28,35,32,28,27,23,21,78,71,58,30.23,30.18,30.11,10,10,10,21,15,24,0.00,8,,347